TimeMST,TemperatureF,Dew PointF,Humidity,Sea Level PressureIn,VisibilityMPH,Wind Direction,Wind SpeedMPH,Gust SpeedMPH,PrecipitationIn,Events,Conditions,WindDirDegrees,DateUTC
12:53 AM,37.0,28.0,70,30.24,10.0,WNW,9.2,-,N/A,,Overcast,300,2013-03-02 07:53:00
1:53 AM,33.1,27.0,78,30.27,10.0,North,8.1,-,N/A,,Clear,360,2013-03-02 08:53:00
2:53 AM,33.1,27.0,78,30.26,10.0,NNW,5.8,-,N/A,,Clear,340,2013-03-02 09:53:00
3:53 AM,35.1,27.0,72,30.26,10.0,WNW,8.1,-,N/A,,Clear,290,2013-03-02 10:53:00
4:53 AM,36.0,27.0,70,30.26,10.0,WNW,9.2,-,N/A,,Clear,300,2013-03-02 11:53:00
5:53 AM,35.1,27.0,72,30.25,10.0,WNW,8.1,-,N/A,,Clear,300,2013-03-02 12:53:00
6:53 AM,39.0,27.0,62,30.25,10.0,WNW,16.1,23.0,N/A,,Clear,300,2013-03-02 13:53:00
7:53 AM,41.0,27.0,57,30.25,10.0,West,12.7,-,N/A,,Clear,280,2013-03-02 14:53:00
8:53 AM,45.0,27.0,49,30.23,10.0,West,16.1,21.9,N/A,,Clear,280,2013-03-02 15:53:00
9:53 AM,50.0,27.0,41,30.20,10.0,WNW,27.6,34.5,N/A,,Clear,290,2013-03-02 16:53:00
10:53 AM,55.0,27.0,34,30.19,10.0,WNW,17.3,26.5,N/A,,Clear,290,2013-03-02 17:53:00
11:53 AM,57.0,26.1,30,30.15,10.0,WNW,19.6,27.6,N/A,,Clear,290,2013-03-02 18:53:00
12:53 PM,59.0,24.1,26,30.11,10.0,WNW,18.4,24.2,N/A,,Clear,290,2013-03-02 19:53:00
1:53 PM,60.1,24.1,25,30.10,10.0,NW,12.7,24.2,N/A,,Clear,310,2013-03-02 20:53:00
2:53 PM,59.0,23.0,25,30.10,10.0,NW,13.8,26.5,N/A,,Clear,320,2013-03-02 21:53:00
3:53 PM,60.1,23.0,24,30.07,10.0,WNW,16.1,24.2,N/A,,Clear,300,2013-03-02 22:53:00
4:53 PM,55.9,27.0,33,30.08,10.0,West,16.1,21.9,N/A,,Clear,260,2013-03-02 23:53:00
6:53 PM,48.0,28.9,48,30.09,10.0,West,10.4,-,N/A,,Clear,280,2013-03-03 01:53:00
7:53 PM,44.1,28.9,55,30.07,10.0,WSW,4.6,-,N/A,,Clear,250,2013-03-03 02:53:00
8:53 PM,43.0,28.9,58,30.05,10.0,West,3.5,-,N/A,,Clear,260,2013-03-03 03:53:00
9:53 PM,43.0,28.9,58,30.01,10.0,WNW,8.1,-,N/A,,Clear,290,2013-03-03 04:53:00
10:53 PM,37.9,28.0,68,29.98,10.0,Calm,Calm,-,N/A,,Clear,0,2013-03-03 05:53:00
11:53 PM,36.0,28.0,73,29.94,10.0,Calm,Calm,-,N/A,,Clear,0,2013-03-03 06:53:00